Terminal Aerodrome Forecast
Issued by NWS

Home | Current Version | Previous Version | Text Only | Print | Product List | Glossary On
Versions: 1 2 3 4 5 6 7 8 9 10 11 12 13 14 15 16 17 18
027
FTUS43 KDVN 102001 AAB
TAFBRL
TAF AMD
KBRL 102001Z 1020/1118 14008KT 1 1/2SM -SN BKN024 OVC029
     FM102200 14010KT P6SM BKN040
     FM110200 15010KT P6SM VCSH OVC040
     FM111200 16012KT 1SM -SN OVC012=

USA.gov is the U.S. government's official web portal to all federal, state and local government web resources and services.